createdAt,value
2019-03-25T04:54:59.568Z,100639.91
2019-03-25T04:57:31.112Z,100642.22
2019-03-25T05:00:01.756Z,100641.84
2019-03-25T05:02:32.594Z,100641.86
2019-03-25T05:05:04.828Z,100638.45
2019-03-25T05:07:35.323Z,100631.95
2019-03-25T05:10:07.346Z,100635.52
2019-03-25T05:12:39.021Z,100628.19
2019-03-25T05:15:09.509Z,100628.94
2019-03-25T05:17:40.000Z,100620.09
2019-03-25T05:20:10.504Z,100612.75
2019-03-25T05:22:41.144Z,100611.44
2019-03-25T05:25:11.672Z,100608.44
2019-03-25T05:27:42.203Z,100602.66
2019-03-25T05:30:13.049Z,100595.91
2019-03-25T05:32:43.665Z,100589.33
2019-03-25T05:35:14.163Z,100586.45
2019-03-25T05:37:44.688Z,100583.88
2019-03-25T05:40:15.358Z,100578.62
2019-03-25T05:42:45.887Z,100576.97
2019-03-25T05:45:16.415Z,100582.27
2019-03-25T05:47:47.063Z,100578.45
2019-03-25T05:50:17.691Z,100568.88
2019-03-25T05:52:48.225Z,100573.22
2019-03-25T05:55:18.752Z,100569.67
2019-03-25T05:57:49.285Z,100568.23
2019-03-25T06:00:21.963Z,100555.33
2019-03-25T06:02:52.451Z,100562.37
2019-03-25T06:05:23.029Z,100561.70
2019-03-25T06:07:53.659Z,100556.92
2019-03-25T06:10:24.187Z,100549.59
2019-03-25T06:12:54.809Z,100552.05
2019-03-25T06:15:25.317Z,100547.30
2019-03-25T06:17:55.830Z,100551.07
2019-03-25T06:20:26.421Z,100539.49
2019-03-25T06:22:57.005Z,100538.30
2019-03-25T06:25:27.588Z,100534.44
2019-03-25T06:27:58.128Z,100533.86
2019-03-25T06:30:28.621Z,100524.30
2019-03-25T06:32:59.194Z,100525.72
2019-03-25T06:35:30.012Z,100540.62
2019-03-25T06:38:00.640Z,100526.03
2019-03-25T06:40:31.289Z,100522.44
2019-03-25T06:43:01.779Z,100518.56
2019-03-25T06:45:32.343Z,100515.09
2019-03-25T06:48:03.078Z,100509.52
2019-03-25T06:50:33.916Z,100513.00
2019-03-25T06:53:04.441Z,100514.94
2019-03-25T06:55:35.084Z,100508.47
2019-03-25T06:58:05.651Z,100508.59
2019-03-25T07:00:36.148Z,100502.34
2019-03-25T07:03:06.986Z,100500.55
2019-03-25T07:05:37.614Z,100499.23
2019-03-25T07:08:08.241Z,100497.13
2019-03-25T07:10:38.730Z,100493.17
2019-03-25T07:13:09.414Z,100493.09
2019-03-25T07:15:39.903Z,100497.84
2019-03-25T07:18:10.578Z,100500.11
2019-03-25T07:20:41.203Z,100514.78
2019-03-25T07:23:11.688Z,100510.38
2019-03-25T07:25:43.257Z,100506.67
2019-03-25T07:28:14.032Z,100506.69
2019-03-25T07:30:44.567Z,100505.50
2019-03-25T07:33:15.201Z,100506.91
2019-03-25T07:35:45.728Z,100507.36
2019-03-25T07:38:16.359Z,100501.63
2019-03-25T07:40:48.025Z,100508.30
2019-03-25T07:43:18.862Z,100501.19
2019-03-25T07:45:49.390Z,100497.23
2019-03-25T07:48:19.916Z,100492.70
2019-03-25T07:50:50.450Z,100495.31
2019-03-25T07:53:20.981Z,100489.23
2019-03-25T07:55:51.611Z,100483.14
2019-03-25T07:58:22.146Z,100480.09
2019-03-25T08:00:52.773Z,100489.42
2019-03-25T08:03:23.315Z,100487.48
2019-03-25T08:05:54.207Z,100478.52
2019-03-25T08:08:24.822Z,100481.25
2019-03-25T08:10:55.332Z,100477.16
2019-03-25T08:13:26.099Z,100475.20
2019-03-25T08:15:56.683Z,100475.90
2019-03-25T08:18:27.314Z,100470.41
2019-03-25T08:20:57.825Z,100465.68
2019-03-25T08:23:28.308Z,100464.56
2019-03-25T08:25:58.809Z,100461.77
2019-03-25T08:28:29.602Z,100463.28
2019-03-25T08:31:00.372Z,100458.28
2019-03-25T08:33:30.973Z,100458.18
2019-03-25T08:36:02.660Z,100461.30
2019-03-25T08:38:33.304Z,100454.04
2019-03-25T08:41:03.863Z,100444.25
2019-03-25T08:43:34.419Z,100444.72
2019-03-25T08:46:04.999Z,100447.02
2019-03-25T08:48:35.634Z,100444.95
2019-03-25T08:51:06.181Z,100448.73
2019-03-25T08:53:36.730Z,100458.41
2019-03-25T08:56:08.339Z,100457.47
2019-03-25T08:58:39.063Z,100461.11
2019-03-25T09:01:09.624Z,100453.52
2019-03-25T09:03:40.152Z,100452.52
2019-03-25T09:06:10.685Z,100449.83
2019-03-25T09:08:41.310Z,100450.39
2019-03-25T09:11:12.148Z,100442.56
2019-03-25T09:13:42.889Z,100437.11
2019-03-25T09:16:13.375Z,100433.48
2019-03-25T09:18:43.953Z,100432.20
2019-03-25T09:21:14.583Z,100432.58
2019-03-25T09:23:45.166Z,100433.27
2019-03-25T09:26:16.158Z,100432.58
2019-03-25T09:28:48.329Z,100430.36
2019-03-25T09:31:19.258Z,100426.34
2019-03-25T09:33:50.175Z,100421.31
2019-03-25T09:36:20.934Z,100425.28
2019-03-25T09:38:53.045Z,100423.23
2019-03-25T09:41:23.610Z,100419.72
2019-03-25T09:43:54.169Z,100423.89
2019-03-25T09:46:25.755Z,100424.66
2019-03-25T09:48:56.628Z,100427.59
2019-03-25T09:51:27.194Z,100420.89
2019-03-25T09:53:57.724Z,100425.13
2019-03-25T09:56:28.219Z,100424.52
2019-03-25T09:58:58.795Z,100424.39
2019-03-25T10:01:29.429Z,100420.52
2019-03-25T10:04:00.025Z,100410.96
2019-03-25T10:06:30.507Z,100420.52
2019-03-25T10:09:01.117Z,100413.75
2019-03-25T10:11:33.396Z,100415.59
2019-03-25T10:14:03.909Z,100424.73
2019-03-25T10:16:34.409Z,100415.70
2019-03-25T10:19:05.163Z,100410.34
2019-03-25T10:21:35.826Z,100413.81
2019-03-25T10:24:06.592Z,100414.28
2019-03-25T10:26:38.205Z,100415.63
2019-03-25T10:29:08.848Z,100414.96
2019-03-25T10:31:39.583Z,100408.74
2019-03-25T10:34:10.080Z,100412.05
2019-03-25T10:36:40.584Z,100405.22
2019-03-25T10:39:11.228Z,100410.81
2019-03-25T10:41:41.760Z,100403.08
2019-03-25T10:44:12.388Z,100400.75
2019-03-25T10:46:42.921Z,100405.36
2019-03-25T10:49:16.118Z,100405.84
2019-03-25T10:51:46.036Z,100405.21
2019-03-25T10:54:16.768Z,100416.33
2019-03-25T10:56:49.339Z,100417.34
2019-03-25T10:59:19.472Z,100414.23
2019-03-25T11:01:50.098Z,100419.73
2019-03-25T11:04:20.728Z,100420.52
2019-03-25T11:06:51.369Z,100420.34
2019-03-25T11:09:21.916Z,100417.73
2019-03-25T11:11:52.432Z,100421.69
2019-03-25T11:14:23.004Z,100415.84
2019-03-25T11:16:53.590Z,100423.16
2019-03-25T11:19:24.122Z,100424.14
2019-03-25T11:21:54.752Z,100429.23
2019-03-25T11:24:25.340Z,100428.20
2019-03-25T11:26:55.830Z,100434.63
2019-03-25T11:29:26.411Z,100432.28
2019-03-25T11:31:56.996Z,100439.51
2019-03-25T11:34:27.547Z,100441.05
2019-03-25T11:36:58.455Z,100462.53
2019-03-25T11:39:29.049Z,100454.55
2019-03-25T11:41:59.514Z,100456.19
2019-03-25T11:44:30.153Z,100453.58
2019-03-25T11:47:00.786Z,100446.20
2019-03-25T11:49:31.316Z,100459.34
2019-03-25T11:52:12.445Z,100460.84
2019-03-25T11:54:43.041Z,100463.46
2019-03-25T11:57:13.660Z,100479.38
2019-03-25T11:59:44.387Z,100473.67
2019-03-25T12:02:17.734Z,100485.20
2019-03-25T12:04:47.109Z,100479.61
2019-03-25T12:07:17.582Z,100479.53
2019-03-25T12:09:48.157Z,100487.03
2019-03-25T12:12:18.693Z,100491.55
2019-03-25T12:14:49.225Z,100487.70
2019-03-25T12:17:19.714Z,100502.34
2019-03-25T12:19:50.226Z,100497.41
2019-03-25T12:22:20.813Z,100492.02
2019-03-25T12:24:51.346Z,100493.88
2019-03-25T12:27:21.936Z,100489.48
2019-03-25T12:29:52.634Z,100490.36
2019-03-25T12:32:23.243Z,100497.73
2019-03-25T12:34:53.876Z,100495.37
2019-03-25T12:37:24.501Z,100490.33
2019-03-25T12:39:55.144Z,100497.98
2019-03-25T12:42:25.675Z,100492.17
2019-03-25T12:44:56.204Z,100496.22
2019-03-25T12:47:26.737Z,100495.14
2019-03-25T12:49:57.366Z,100502.72
2019-03-25T12:52:29.338Z,100493.95
2019-03-25T12:54:59.865Z,100497.98
2019-03-25T12:57:30.592Z,100504.48
2019-03-25T13:00:01.062Z,100500.84
2019-03-25T13:02:31.611Z,100511.53
2019-03-25T13:05:02.185Z,100510.09
2019-03-25T13:07:32.828Z,100509.16
2019-03-25T13:10:04.073Z,100512.31
2019-03-25T13:12:34.758Z,100522.84
2019-03-25T13:15:07.094Z,100516.13
2019-03-25T13:17:37.607Z,100516.63
2019-03-25T13:20:09.168Z,100518.37
2019-03-25T13:22:39.812Z,100521.92
2019-03-25T13:25:10.418Z,100523.56
2019-03-25T13:27:42.398Z,100528.74
2019-03-25T13:30:13.772Z,100531.08
2019-03-25T13:32:44.479Z,100530.02
2019-03-25T13:35:15.053Z,100536.63
2019-03-25T13:37:45.654Z,100537.60
2019-03-25T13:40:16.181Z,100546.16
2019-03-25T13:42:47.131Z,100541.96
2019-03-25T13:45:17.657Z,100538.37
2019-03-25T13:47:50.037Z,100537.10
2019-03-25T13:50:20.553Z,100538.75
2019-03-25T13:52:51.296Z,100548.05
2019-03-25T13:55:21.828Z,100549.51
2019-03-25T13:57:52.357Z,100553.73
2019-03-25T14:00:29.371Z,100553.65
2019-03-25T14:02:59.872Z,100555.45
2019-03-25T14:05:30.502Z,100557.81
2019-03-25T14:08:01.135Z,100553.53
2019-03-25T14:10:31.659Z,100559.51
2019-03-25T14:13:02.193Z,100562.77
2019-03-25T14:15:32.722Z,100561.73
2019-03-25T14:18:03.266Z,100566.44
2019-03-25T14:20:33.786Z,100562.26
2019-03-25T14:23:04.321Z,100563.19
2019-03-25T14:25:34.960Z,100563.78
2019-03-25T14:28:05.592Z,100564.55
2019-03-25T14:30:36.122Z,100561.61
2019-03-25T14:33:06.749Z,100573.14
2019-03-25T14:35:37.288Z,100575.98
2019-03-25T14:38:07.808Z,100575.77
2019-03-25T14:40:38.455Z,100577.66
2019-03-25T14:43:09.083Z,100571.91
2019-03-25T14:45:39.919Z,100577.11
2019-03-25T14:48:10.547Z,100569.03
2019-03-25T14:50:41.037Z,100571.27
2019-03-25T14:53:11.609Z,100578.34
2019-03-25T14:55:42.141Z,100573.84
2019-03-25T14:58:12.932Z,100572.31
2019-03-25T15:00:43.443Z,100574.62
2019-03-25T15:03:14.045Z,100577.38
2019-03-25T15:05:44.891Z,100586.02
2019-03-25T15:08:15.412Z,100581.95
2019-03-25T15:10:53.436Z,100617.16
2019-03-25T15:13:18.220Z,100604.42
2019-03-25T15:15:50.384Z,100612.31
2019-03-25T15:18:20.915Z,100621.53
2019-03-25T15:20:51.443Z,100618.09
2019-03-25T15:23:23.514Z,100625.62
2019-03-25T15:25:54.153Z,100624.26
2019-03-25T15:28:24.685Z,100612.52
2019-03-25T15:30:55.314Z,100619.07
2019-03-25T15:33:25.944Z,100617.08
2019-03-25T15:35:56.585Z,100620.26
2019-03-25T15:38:28.833Z,100618.73
2019-03-25T15:40:59.324Z,100629.55
2019-03-25T15:43:30.022Z,100634.61
2019-03-25T15:46:00.651Z,100640.11
2019-03-25T15:48:31.182Z,100634.41
2019-03-25T15:51:01.923Z,100642.09
2019-03-25T15:53:35.523Z,100644.09
2019-03-25T15:56:06.054Z,100646.70
2019-03-25T15:58:36.583Z,100651.86
2019-03-25T16:01:07.223Z,100656.34
2019-03-25T16:03:37.955Z,100659.26
2019-03-25T16:06:09.730Z,100654.70
2019-03-25T16:08:40.447Z,100662.05
2019-03-25T16:11:11.003Z,100664.55
2019-03-25T16:13:41.616Z,100670.45
2019-03-25T16:16:12.223Z,100674.23
2019-03-25T16:18:42.982Z,100678.80
2019-03-25T16:21:13.652Z,100682.39
2019-03-25T16:23:44.160Z,100678.33
2019-03-25T16:26:14.770Z,100687.93
2019-03-25T16:28:45.411Z,100687.42
2019-03-25T16:31:17.272Z,100683.81
2019-03-25T16:33:48.973Z,100689.06
2019-03-25T16:36:19.560Z,100687.08
2019-03-25T16:38:50.044Z,100694.48
2019-03-25T16:41:20.731Z,100691.23
2019-03-25T16:43:52.381Z,100693.63
2019-03-25T16:46:23.016Z,100699.05
2019-03-25T16:48:55.162Z,100700.28
2019-03-25T16:51:25.985Z,100706.53
2019-03-25T16:53:56.558Z,100718.92
2019-03-25T16:56:27.090Z,100719.94
2019-03-25T16:58:57.735Z,100719.97
2019-03-25T17:01:28.254Z,100730.37
2019-03-25T17:03:58.743Z,100735.98
2019-03-25T17:06:29.307Z,100742.42
2019-03-25T17:09:01.378Z,100740.77
2019-03-25T17:11:33.763Z,100747.12
2019-03-25T17:14:04.245Z,100754.52
2019-03-25T17:16:34.912Z,100751.81
2019-03-25T17:19:05.405Z,100760.75
2019-03-25T17:21:35.976Z,100765.56
2019-03-25T17:24:06.616Z,100770.22
2019-03-25T17:26:42.319Z,100773.68
2019-03-25T17:29:09.367Z,100784.38
2019-03-25T17:31:40.068Z,100787.40
2019-03-25T17:34:10.709Z,100794.38
2019-03-25T17:36:41.179Z,100802.39
2019-03-25T17:39:11.681Z,100792.59
2019-03-25T17:41:42.377Z,100803.42
2019-03-25T17:44:12.908Z,100811.97
2019-03-25T17:46:43.412Z,100814.25
2019-03-25T17:49:14.076Z,100823.30
2019-03-25T17:51:44.575Z,100823.94
2019-03-25T17:54:15.139Z,100835.28
2019-03-25T17:56:45.768Z,100833.08
2019-03-25T17:59:16.399Z,100844.23
2019-03-25T18:01:47.080Z,100844.23
2019-03-25T18:04:17.669Z,100846.94
2019-03-25T18:06:48.296Z,100846.52
2019-03-25T18:09:18.829Z,100851.80
2019-03-25T18:11:49.325Z,100857.42
2019-03-25T18:14:20.006Z,100864.20
2019-03-25T18:16:50.496Z,100866.48
2019-03-25T18:19:21.062Z,100875.45
2019-03-25T18:21:51.597Z,100881.37
2019-03-25T18:24:22.125Z,100888.55
2019-03-25T18:26:54.288Z,100896.45
2019-03-25T18:29:24.927Z,100899.28
2019-03-25T18:31:55.463Z,100903.95
2019-03-25T18:34:25.986Z,100910.09
2019-03-25T18:36:56.623Z,100903.23
2019-03-25T18:39:27.255Z,100915.11
2019-03-25T18:41:57.896Z,100922.91
2019-03-25T18:44:28.390Z,100924.78
2019-03-25T18:46:58.947Z,100923.12
